Flight Track Log - Related Links

Times and Time Zones

All times are in EDT time to prevent confusion due to time zone crossing. See the N89KB flight status page for this flight to view local times or setup timezone preferences in your user account.

Time Position Orientation Groundspeed Altitude Reporting Facility
EDT Latitude Longitude Course Direction KTS MPH feet Rate Location/Type
Wed 03:30:00 PM 36.0571 -80.1627 263° West  Level FlightAware Approximate
Wed 03:31:00 PM 36.0524 -80.2096 263° West  Level FlightAware Approximate
Wed 03:32:00 PM 36.0437 -80.2554 251° West  Level FlightAware Approximate
Wed 03:33:00 PM 36.0310 -80.2999 251° West  Level FlightAware Approximate
Wed 03:34:00 PM 36.0182 -80.3445 251° West  Level FlightAware Approximate
Wed 03:34:04 PM 36.0414 -80.3794 261° West 194 223 10,000  Level Atlanta Center
Wed 03:35:00 PM 36.0113 -80.3908 261° West  Level FlightAware Approximate
Wed 03:35:04 PM 36.0286 -80.4442 256° West 200 230 10,000  Level Atlanta Center
Wed 03:36:00 PM 36.0051 -80.4375 261° West  Level FlightAware Approximate
Wed 03:36:04 PM 36.0161 -80.5142 258° West 206 237 10,000  Level Atlanta Center
Wed 03:37:00 PM 35.9989 -80.4841 261° West  Level FlightAware Approximate
Wed 03:37:04 PM 36.0011 -80.5764 253° West 206 237 10,000  Level Atlanta Center
Wed 03:38:00 PM 35.9926 -80.5307 261° West  Level FlightAware Approximate
Wed 03:38:04 PM 35.9903 -80.6408 258° West 212 244 10,000  Level Atlanta Center
Wed 03:39:00 PM 35.9864 -80.5772 261° West  Level FlightAware Approximate
Wed 03:39:04 PM 35.9756 -80.7056 254° West 206 237 10,000  Level Atlanta Center
Wed 03:40:04 PM 35.9625 -80.7703 256° West 206 237 10,000  Level Atlanta Center
Wed 03:41:04 PM 35.9497 -80.8375 257° West 201 231 10,000  Level Atlanta Center
Wed 03:42:04 PM 35.9369 -80.9022 256° West 206 237 10,000 -350 Level Atlanta Center
Wed 03:43:04 PM 35.9239 -80.9669 256° West 206 237 9,300 -800 Descending Atlanta Center
Wed 03:44:04 PM 35.9358 -81.0306 283° West 194 223 8,400 -700 Descending Atlanta Center
Wed 03:45:04 PM 35.9458 -81.0942 281° West 194 223 7,900 -250 Descending Atlanta Center
Wed 03:46:04 PM 35.9200 -81.1517 241° Southwest 186 214 7,900  Level Atlanta Center
Wed 03:47:04 PM 35.8772 -81.1914 217° Southwest 174 200 7,900  Level Atlanta Center
Wed 03:48:04 PM 35.8386 -81.2339 222° Southwest 187 215 7,900  Level Atlanta Center
Wed 03:49:04 PM 35.8000 -81.2786 223° Southwest 192 221 7,900  Level Atlanta Center
Wed 03:50:04 PM 35.7611 -81.3236 223° Southwest 192 221 7,900  Level Atlanta Center
Wed 03:51:04 PM 35.7225 -81.3683 223° Southwest 192 221 7,900  Level Atlanta Center
Wed 03:52:04 PM 35.6839 -81.4131 223° Southwest 192 221 7,900  Level Atlanta Center
Wed 03:53:04 PM 35.6431 -81.4578 222° Southwest 187 215 7,900  Level Atlanta Center
Wed 03:54:04 PM 35.6044 -81.5025 223° Southwest 187 215 7,900  Level Atlanta Center
Wed 03:55:04 PM 35.5658 -81.5469 223° Southwest 187 215 7,900  Level Atlanta Center
Wed 03:56:04 PM 35.5250 -81.5917 222° Southwest 187 215 7,900  Level Atlanta Center
Wed 03:57:04 PM 35.4861 -81.6361 223° Southwest 187 215 7,900  Level Atlanta Center
Wed 03:58:04 PM 35.4472 -81.6781 221° Southwest 187 215 7,900  Level Atlanta Center
Wed 03:59:04 PM 35.4086 -81.7225 223° Southwest 187 215 7,900  Level Atlanta Center
Wed 04:00:04 PM 35.3697 -81.7669 223° Southwest 187 215 7,900  Level Atlanta Center
Wed 04:01:04 PM 35.3350 -81.8061 223° Southwest 187 215 7,900 -150 Level Atlanta Center
Wed 04:02:04 PM 35.2981 -81.8503 224° Southwest 187 215 7,600 -450 Descending Atlanta Center
Wed 04:03:04 PM 35.2592 -81.8894 219° Southwest 187 215 7,000 -750 Descending Atlanta Center
Wed 04:04:04 PM 35.2158 -81.9161 207° Southwest 177 204 6,100 -900 Descending Atlanta Center
Wed 04:05:04 PM 35.1683 -81.9375 200° South 177 204 5,200 -850 Descending Atlanta Center
Wed 04:06:04 PM 35.1228 -81.9617 203° Southwest 182 209 4,400 -800 Descending Atlanta Center
Wed 04:08:00 PM 35.0784 -82.0726 225° Southwest  Level FlightAware Approximate
Wed 04:15:00 PM 34.8479 -82.3500 219° Southwest  Level Estimated
Wed 04:16:00 PM 34.8479 -82.3500 219° Southwest  Level Estimated
Wed 04:17:00 PM 34.8479 -82.3500 219° Southwest  Level Estimated
Wed 04:18:00 PM 34.8479 -82.3500 219° Southwest  Level Estimated
Wed 04:19:00 PM 34.8479 -82.3500 219° Southwest  Level Estimated
Wed 04:20:00 PM 34.8479 -82.3500 219° Southwest  Level Estimated
Wed 04:21:00 PM 34.8479 -82.3500 219° Southwest  Level Estimated
Wed 04:22:00 PM 34.8479 -82.3500 219° Southwest  Level Estimated
Wed 04:23:00 PM 34.8479 -82.3500 219° Southwest  Level Estimated
Wed 04:24:00 PM 34.8479 -82.3500 219° Southwest  Level Estimated

Login

Don't have an account? Register now (free) for customized features, flight alerts, and more!